7G4 weather

Blue Knob Valley Airport
Newry, Pennsylvania, United States

Public forecast

Using degrees Fahrenheit for public forecast. Weather courtesy of forecast.io.

Closest aviation weather report (METAR) to Blue Knob Valley Airport

Closest report is Altoona Blair County Airport, 8.6 nm (15.8 km) SE. Retrieved 2019/10/14 14:53 UTC (10 minutes ago):

KAOO 141453Z AUTO 23011KT 10SM CLR 16/03 A3002 RMK AO2 SLP168 T01560033 50007

Closest aviation forecast (TAF) to Blue Knob Valley Airport

Closest forecast is Altoona Blair County Airport, 8.6 nm (15.8 km) SE. Retrieved 2019/10/14 12:27 UTC (3 hours ago):

TAF KAOO 141125Z 1412/1512 21003KT P6SM SKC FM141600 27008G15KT P6SM SCT040 FM150000 30004KT P6SM SKC